sensor_id;sensor_type;location;lat;lon;timestamp;P1;durP1;ratioP1;P2;durP2;ratioP2
705;SDS011;21234;48.690;9.016;2022-07-09T00:02:13;2.77;;;2.57;;
705;SDS011;21234;48.690;9.016;2022-07-09T00:04:40;3.33;;;2.17;;
705;SDS011;21234;48.690;9.016;2022-07-09T00:07:07;4.00;;;2.10;;
705;SDS011;21234;48.690;9.016;2022-07-09T00:09:33;2.20;;;2.00;;
705;SDS011;21234;48.690;9.016;2022-07-09T00:12:00;2.80;;;2.60;;
705;SDS011;21234;48.690;9.016;2022-07-09T00:14:27;3.07;;;2.40;;
705;SDS011;21234;48.690;9.016;2022-07-09T00:16:56;4.10;;;2.20;;
705;SDS011;21234;48.690;9.016;2022-07-09T00:19:22;4.20;;;2.60;;
705;SDS011;21234;48.690;9.016;2022-07-09T00:21:49;3.53;;;2.27;;
705;SDS011;21234;48.690;9.016;2022-07-09T00:24:16;3.90;;;2.50;;
705;SDS011;21234;48.690;9.016;2022-07-09T00:26:43;4.93;;;2.73;;
705;SDS011;21234;48.690;9.016;2022-07-09T00:29:09;4.90;;;3.03;;
705;SDS011;21234;48.690;9.016;2022-07-09T00:31:36;2.17;;;1.97;;
705;SDS011;21234;48.690;9.016;2022-07-09T00:34:04;3.17;;;2.67;;
705;SDS011;21234;48.690;9.016;2022-07-09T00:36:31;3.50;;;2.47;;
705;SDS011;21234;48.690;9.016;2022-07-09T00:38:58;2.80;;;2.53;;
705;SDS011;21234;48.690;9.016;2022-07-09T00:41:24;2.77;;;2.13;;
705;SDS011;21234;48.690;9.016;2022-07-09T00:43:51;4.33;;;2.27;;
705;SDS011;21234;48.690;9.016;2022-07-09T00:46:18;3.37;;;1.97;;
705;SDS011;21234;48.690;9.016;2022-07-09T00:48:45;2.47;;;2.27;;
705;SDS011;21234;48.690;9.016;2022-07-09T00:51:13;2.73;;;2.20;;
705;SDS011;21234;48.690;9.016;2022-07-09T00:53:43;3.80;;;2.80;;
705;SDS011;21234;48.690;9.016;2022-07-09T00:56:11;3.60;;;2.63;;
705;SDS011;21234;48.690;9.016;2022-07-09T00:58:38;3.93;;;2.53;;
705;SDS011;21234;48.690;9.016;2022-07-09T01:01:08;2.67;;;2.33;;
705;SDS011;21234;48.690;9.016;2022-07-09T01:03:34;2.93;;;2.33;;
705;SDS011;21234;48.690;9.016;2022-07-09T01:06:01;2.50;;;2.30;;
705;SDS011;21234;48.690;9.016;2022-07-09T01:08:29;2.37;;;2.17;;
705;SDS011;21234;48.690;9.016;2022-07-09T01:10:56;3.67;;;2.60;;
705;SDS011;21234;48.690;9.016;2022-07-09T01:13:24;3.10;;;2.87;;
705;SDS011;21234;48.690;9.016;2022-07-09T01:15:51;2.40;;;2.17;;
705;SDS011;21234;48.690;9.016;2022-07-09T01:18:17;6.00;;;3.73;;
705;SDS011;21234;48.690;9.016;2022-07-09T01:20:46;3.17;;;2.70;;
705;SDS011;21234;48.690;9.016;2022-07-09T01:23:12;2.60;;;2.37;;
705;SDS011;21234;48.690;9.016;2022-07-09T01:25:40;2.37;;;2.00;;
705;SDS011;21234;48.690;9.016;2022-07-09T01:28:08;2.90;;;2.30;;
705;SDS011;21234;48.690;9.016;2022-07-09T01:30:37;3.90;;;3.13;;
705;SDS011;21234;48.690;9.016;2022-07-09T01:33:06;2.67;;;2.17;;
705;SDS011;21234;48.690;9.016;2022-07-09T01:35:33;4.10;;;2.83;;
705;SDS011;21234;48.690;9.016;2022-07-09T01:38:02;3.13;;;2.30;;
705;SDS011;21234;48.690;9.016;2022-07-09T01:40:29;2.80;;;2.60;;
705;SDS011;21234;48.690;9.016;2022-07-09T01:42:56;3.43;;;2.60;;
705;SDS011;21234;48.690;9.016;2022-07-09T01:45:23;2.70;;;2.40;;
705;SDS011;21234;48.690;9.016;2022-07-09T01:47:49;5.80;;;3.77;;
705;SDS011;21234;48.690;9.016;2022-07-09T01:50:16;3.53;;;2.57;;
705;SDS011;21234;48.690;9.016;2022-07-09T01:52:43;3.80;;;2.70;;
705;SDS011;21234;48.690;9.016;2022-07-09T01:55:11;2.80;;;2.60;;
705;SDS011;21234;48.690;9.016;2022-07-09T01:57:38;3.23;;;2.60;;
705;SDS011;21234;48.690;9.016;2022-07-09T02:00:06;3.57;;;2.60;;
705;SDS011;21234;48.690;9.016;2022-07-09T02:02:34;4.67;;;2.67;;
705;SDS011;21234;48.690;9.016;2022-07-09T02:05:00;8.93;;;3.30;;
705;SDS011;21234;48.690;9.016;2022-07-09T02:07:27;2.27;;;2.07;;
705;SDS011;21234;48.690;9.016;2022-07-09T02:09:54;2.67;;;2.47;;
705;SDS011;21234;48.690;9.016;2022-07-09T02:12:22;3.67;;;2.30;;
705;SDS011;21234;48.690;9.016;2022-07-09T02:14:49;3.27;;;2.37;;
705;SDS011;21234;48.690;9.016;2022-07-09T02:17:15;3.70;;;3.17;;
705;SDS011;21234;48.690;9.016;2022-07-09T02:19:42;4.40;;;3.00;;
705;SDS011;21234;48.690;9.016;2022-07-09T02:22:09;3.20;;;2.67;;
705;SDS011;21234;48.690;9.016;2022-07-09T02:24:36;2.97;;;2.77;;
705;SDS011;21234;48.690;9.016;2022-07-09T02:27:03;4.90;;;2.33;;
705;SDS011;21234;48.690;9.016;2022-07-09T02:29:31;2.57;;;2.37;;
705;SDS011;21234;48.690;9.016;2022-07-09T02:31:58;4.30;;;2.67;;
705;SDS011;21234;48.690;9.016;2022-07-09T02:34:25;3.70;;;3.00;;
705;SDS011;21234;48.690;9.016;2022-07-09T02:36:52;7.70;;;3.00;;
705;SDS011;21234;48.690;9.016;2022-07-09T02:39:18;3.20;;;2.60;;
705;SDS011;21234;48.690;9.016;2022-07-09T02:41:45;3.00;;;2.70;;
705;SDS011;21234;48.690;9.016;2022-07-09T02:44:12;3.23;;;2.93;;
705;SDS011;21234;48.690;9.016;2022-07-09T02:46:40;4.23;;;2.60;;
705;SDS011;21234;48.690;9.016;2022-07-09T02:49:07;3.77;;;2.93;;
705;SDS011;21234;48.690;9.016;2022-07-09T02:51:35;3.50;;;2.77;;
705;SDS011;21234;48.690;9.016;2022-07-09T02:54:02;3.67;;;2.60;;
705;SDS011;21234;48.690;9.016;2022-07-09T02:56:29;2.70;;;2.30;;
705;SDS011;21234;48.690;9.016;2022-07-09T02:58:56;2.70;;;2.40;;
705;SDS011;21234;48.690;9.016;2022-07-09T03:01:23;2.57;;;2.37;;
705;SDS011;21234;48.690;9.016;2022-07-09T03:03:51;2.67;;;2.03;;
705;SDS011;21234;48.690;9.016;2022-07-09T03:06:18;2.40;;;2.10;;
705;SDS011;21234;48.690;9.016;2022-07-09T03:08:45;2.33;;;2.13;;
705;SDS011;21234;48.690;9.016;2022-07-09T03:11:12;7.10;;;3.50;;
705;SDS011;21234;48.690;9.016;2022-07-09T03:13:38;4.13;;;2.53;;
705;SDS011;21234;48.690;9.016;2022-07-09T03:16:05;2.87;;;2.50;;
705;SDS011;21234;48.690;9.016;2022-07-09T03:18:33;2.63;;;2.27;;
705;SDS011;21234;48.690;9.016;2022-07-09T03:21:01;5.33;;;2.73;;
705;SDS011;21234;48.690;9.016;2022-07-09T03:23:28;3.60;;;2.77;;
705;SDS011;21234;48.690;9.016;2022-07-09T03:25:54;3.57;;;2.37;;
705;SDS011;21234;48.690;9.016;2022-07-09T03:28:21;6.80;;;3.13;;
705;SDS011;21234;48.690;9.016;2022-07-09T03:30:48;4.60;;;2.73;;
705;SDS011;21234;48.690;9.016;2022-07-09T03:33:15;4.23;;;2.50;;
705;SDS011;21234;48.690;9.016;2022-07-09T03:35:42;2.60;;;2.40;;
705;SDS011;21234;48.690;9.016;2022-07-09T03:38:10;3.00;;;2.80;;
705;SDS011;21234;48.690;9.016;2022-07-09T03:40:37;3.10;;;2.80;;
705;SDS011;21234;48.690;9.016;2022-07-09T03:43:04;3.73;;;3.43;;
705;SDS011;21234;48.690;9.016;2022-07-09T03:45:30;4.70;;;3.10;;
705;SDS011;21234;48.690;9.016;2022-07-09T03:47:57;2.47;;;2.27;;
705;SDS011;21234;48.690;9.016;2022-07-09T03:50:24;4.00;;;2.93;;
705;SDS011;21234;48.690;9.016;2022-07-09T03:52:51;2.50;;;2.30;;
705;SDS011;21234;48.690;9.016;2022-07-09T03:55:19;2.63;;;2.40;;
705;SDS011;21234;48.690;9.016;2022-07-09T03:57:46;6.67;;;2.50;;
705;SDS011;21234;48.690;9.016;2022-07-09T04:00:13;3.47;;;2.23;;
705;SDS011;21234;48.690;9.016;2022-07-09T04:02:40;2.60;;;2.40;;
705;SDS011;21234;48.690;9.016;2022-07-09T04:05:07;4.03;;;1.90;;
705;SDS011;21234;48.690;9.016;2022-07-09T04:07:35;2.93;;;2.60;;
705;SDS011;21234;48.690;9.016;2022-07-09T04:10:01;3.07;;;2.87;;
705;SDS011;21234;48.690;9.016;2022-07-09T04:12:30;2.97;;;2.67;;
705;SDS011;21234;48.690;9.016;2022-07-09T04:14:56;3.40;;;3.17;;
705;SDS011;21234;48.690;9.016;2022-07-09T04:17:23;3.20;;;2.90;;
705;SDS011;21234;48.690;9.016;2022-07-09T04:19:50;2.83;;;2.60;;
705;SDS011;21234;48.690;9.016;2022-07-09T04:22:17;2.40;;;2.20;;
705;SDS011;21234;48.690;9.016;2022-07-09T04:24:43;3.37;;;2.20;;
705;SDS011;21234;48.690;9.016;2022-07-09T04:27:10;3.20;;;2.53;;
705;SDS011;21234;48.690;9.016;2022-07-09T04:29:38;5.10;;;3.17;;
705;SDS011;21234;48.690;9.016;2022-07-09T04:32:05;9.90;;;3.37;;
705;SDS011;21234;48.690;9.016;2022-07-09T04:34:33;4.27;;;2.70;;
705;SDS011;21234;48.690;9.016;2022-07-09T04:36:59;5.00;;;3.33;;
705;SDS011;21234;48.690;9.016;2022-07-09T04:39:26;3.40;;;2.80;;
705;SDS011;21234;48.690;9.016;2022-07-09T04:41:53;3.23;;;2.70;;
705;SDS011;21234;48.690;9.016;2022-07-09T04:44:20;3.90;;;3.13;;
705;SDS011;21234;48.690;9.016;2022-07-09T04:46:48;3.57;;;3.27;;
705;SDS011;21234;48.690;9.016;2022-07-09T04:49:15;2.20;;;2.10;;
705;SDS011;21234;48.690;9.016;2022-07-09T04:51:41;3.63;;;3.30;;
705;SDS011;21234;48.690;9.016;2022-07-09T04:54:08;3.53;;;3.23;;
705;SDS011;21234;48.690;9.016;2022-07-09T04:56:35;4.90;;;3.57;;
705;SDS011;21234;48.690;9.016;2022-07-09T04:59:02;5.07;;;3.57;;
705;SDS011;21234;48.690;9.016;2022-07-09T05:01:28;3.13;;;2.93;;
705;SDS011;21234;48.690;9.016;2022-07-09T05:03:57;4.30;;;3.00;;
705;SDS011;21234;48.690;9.016;2022-07-09T05:06:24;3.63;;;2.70;;
705;SDS011;21234;48.690;9.016;2022-07-09T05:08:50;4.17;;;3.07;;
705;SDS011;21234;48.690;9.016;2022-07-09T05:11:17;6.70;;;3.50;;
705;SDS011;21234;48.690;9.016;2022-07-09T05:13:44;3.30;;;3.00;;
705;SDS011;21234;48.690;9.016;2022-07-09T05:16:11;4.50;;;3.07;;
705;SDS011;21234;48.690;9.016;2022-07-09T05:18:39;4.03;;;2.90;;
705;SDS011;21234;48.690;9.016;2022-07-09T05:21:07;4.00;;;3.60;;
705;SDS011;21234;48.690;9.016;2022-07-09T05:23:34;3.50;;;3.13;;
705;SDS011;21234;48.690;9.016;2022-07-09T05:26:01;4.07;;;3.10;;
705;SDS011;21234;48.690;9.016;2022-07-09T05:28:29;3.27;;;2.50;;
705;SDS011;21234;48.690;9.016;2022-07-09T05:30:56;3.50;;;3.20;;
705;SDS011;21234;48.690;9.016;2022-07-09T05:33:23;3.20;;;2.80;;
705;SDS011;21234;48.690;9.016;2022-07-09T05:35:50;6.70;;;3.13;;
705;SDS011;21234;48.690;9.016;2022-07-09T05:38:18;3.37;;;3.10;;
705;SDS011;21234;48.690;9.016;2022-07-09T05:40:46;3.83;;;3.00;;
705;SDS011;21234;48.690;9.016;2022-07-09T05:43:13;9.60;;;4.43;;
705;SDS011;21234;48.690;9.016;2022-07-09T05:45:39;4.30;;;3.40;;
705;SDS011;21234;48.690;9.016;2022-07-09T05:48:07;6.27;;;4.23;;
705;SDS011;21234;48.690;9.016;2022-07-09T05:50:35;5.50;;;3.00;;
705;SDS011;21234;48.690;9.016;2022-07-09T05:53:04;4.20;;;3.00;;
705;SDS011;21234;48.690;9.016;2022-07-09T05:55:37;3.80;;;2.83;;
705;SDS011;21234;48.690;9.016;2022-07-09T05:58:05;3.53;;;3.20;;
705;SDS011;21234;48.690;9.016;2022-07-09T06:00:31;3.83;;;2.67;;
705;SDS011;21234;48.690;9.016;2022-07-09T06:02:58;3.33;;;3.00;;
705;SDS011;21234;48.690;9.016;2022-07-09T06:05:25;3.43;;;3.23;;
705;SDS011;21234;48.690;9.016;2022-07-09T06:07:52;5.87;;;3.13;;
705;SDS011;21234;48.690;9.016;2022-07-09T06:10:19;4.00;;;2.63;;
705;SDS011;21234;48.690;9.016;2022-07-09T06:12:47;4.50;;;3.10;;
705;SDS011;21234;48.690;9.016;2022-07-09T06:15:14;3.70;;;3.00;;
705;SDS011;21234;48.690;9.016;2022-07-09T06:17:40;2.90;;;2.70;;
705;SDS011;21234;48.690;9.016;2022-07-09T06:20:07;2.90;;;2.17;;
705;SDS011;21234;48.690;9.016;2022-07-09T06:22:35;3.77;;;2.90;;
705;SDS011;21234;48.690;9.016;2022-07-09T06:25:04;3.73;;;3.30;;
705;SDS011;21234;48.690;9.016;2022-07-09T06:27:31;2.83;;;2.33;;
705;SDS011;21234;48.690;9.016;2022-07-09T06:29:59;4.30;;;2.73;;
705;SDS011;21234;48.690;9.016;2022-07-09T06:32:26;4.97;;;2.70;;
705;SDS011;21234;48.690;9.016;2022-07-09T06:34:53;3.60;;;3.00;;
705;SDS011;21234;48.690;9.016;2022-07-09T06:37:20;3.63;;;3.33;;
705;SDS011;21234;48.690;9.016;2022-07-09T06:39:46;4.23;;;2.83;;
705;SDS011;21234;48.690;9.016;2022-07-09T06:42:15;2.73;;;2.53;;
705;SDS011;21234;48.690;9.016;2022-07-09T06:44:43;4.30;;;2.93;;
705;SDS011;21234;48.690;9.016;2022-07-09T06:47:12;6.57;;;3.60;;
705;SDS011;21234;48.690;9.016;2022-07-09T06:49:39;3.30;;;2.63;;
705;SDS011;21234;48.690;9.016;2022-07-09T06:52:06;3.83;;;2.60;;
705;SDS011;21234;48.690;9.016;2022-07-09T06:54:33;4.10;;;2.57;;
705;SDS011;21234;48.690;9.016;2022-07-09T06:57:00;3.60;;;3.30;;
705;SDS011;21234;48.690;9.016;2022-07-09T06:59:28;3.10;;;2.80;;
705;SDS011;21234;48.690;9.016;2022-07-09T07:01:55;2.83;;;2.60;;
705;SDS011;21234;48.690;9.016;2022-07-09T07:04:23;3.50;;;2.63;;
705;SDS011;21234;48.690;9.016;2022-07-09T07:06:51;5.27;;;3.00;;
705;SDS011;21234;48.690;9.016;2022-07-09T07:09:19;2.60;;;2.10;;
705;SDS011;21234;48.690;9.016;2022-07-09T07:11:47;4.10;;;3.10;;
705;SDS011;21234;48.690;9.016;2022-07-09T07:14:14;6.50;;;2.33;;
705;SDS011;21234;48.690;9.016;2022-07-09T07:16:41;4.20;;;2.63;;
705;SDS011;21234;48.690;9.016;2022-07-09T07:19:08;4.70;;;2.40;;
705;SDS011;21234;48.690;9.016;2022-07-09T07:21:37;2.83;;;2.63;;
705;SDS011;21234;48.690;9.016;2022-07-09T07:24:04;3.20;;;2.70;;
705;SDS011;21234;48.690;9.016;2022-07-09T07:26:32;3.93;;;2.27;;
705;SDS011;21234;48.690;9.016;2022-07-09T07:28:59;9.87;;;3.40;;
705;SDS011;21234;48.690;9.016;2022-07-09T07:31:26;4.23;;;3.00;;
705;SDS011;21234;48.690;9.016;2022-07-09T07:33:53;3.00;;;2.60;;
705;SDS011;21234;48.690;9.016;2022-07-09T07:36:20;3.70;;;2.10;;
705;SDS011;21234;48.690;9.016;2022-07-09T07:38:48;2.50;;;2.30;;
705;SDS011;21234;48.690;9.016;2022-07-09T07:41:15;4.50;;;2.90;;
705;SDS011;21234;48.690;9.016;2022-07-09T07:43:43;3.83;;;2.53;;
705;SDS011;21234;48.690;9.016;2022-07-09T07:46:10;4.17;;;2.37;;
705;SDS011;21234;48.690;9.016;2022-07-09T07:48:37;3.10;;;2.67;;
705;SDS011;21234;48.690;9.016;2022-07-09T07:51:06;2.57;;;2.37;;
705;SDS011;21234;48.690;9.016;2022-07-09T07:53:33;3.63;;;2.33;;
705;SDS011;21234;48.690;9.016;2022-07-09T07:56:02;2.33;;;2.13;;
705;SDS011;21234;48.690;9.016;2022-07-09T07:58:29;5.00;;;2.87;;
705;SDS011;21234;48.690;9.016;2022-07-09T08:00:56;2.30;;;2.17;;
705;SDS011;21234;48.690;9.016;2022-07-09T08:03:23;3.70;;;2.20;;
705;SDS011;21234;48.690;9.016;2022-07-09T08:05:49;2.50;;;2.20;;
705;SDS011;21234;48.690;9.016;2022-07-09T08:08:16;2.33;;;2.13;;
705;SDS011;21234;48.690;9.016;2022-07-09T08:10:44;3.07;;;2.33;;
705;SDS011;21234;48.690;9.016;2022-07-09T08:13:12;1.83;;;1.73;;
705;SDS011;21234;48.690;9.016;2022-07-09T08:15:39;3.03;;;1.83;;
705;SDS011;21234;48.690;9.016;2022-07-09T08:18:06;2.10;;;1.40;;
705;SDS011;21234;48.690;9.016;2022-07-09T08:20:37;2.93;;;1.47;;
705;SDS011;21234;48.690;9.016;2022-07-09T08:23:05;2.57;;;1.67;;
705;SDS011;21234;48.690;9.016;2022-07-09T08:25:32;2.03;;;1.90;;
705;SDS011;21234;48.690;9.016;2022-07-09T08:27:58;1.63;;;1.53;;
705;SDS011;21234;48.690;9.016;2022-07-09T08:30:27;2.17;;;1.93;;
705;SDS011;21234;48.690;9.016;2022-07-09T08:32:53;1.50;;;1.40;;
705;SDS011;21234;48.690;9.016;2022-07-09T08:35:20;3.47;;;2.33;;
705;SDS011;21234;48.690;9.016;2022-07-09T08:37:47;1.47;;;1.37;;
705;SDS011;21234;48.690;9.016;2022-07-09T08:40:14;1.87;;;1.50;;
705;SDS011;21234;48.690;9.016;2022-07-09T08:42:41;1.57;;;1.47;;
705;SDS011;21234;48.690;9.016;2022-07-09T08:45:10;2.57;;;1.73;;
705;SDS011;21234;48.690;9.016;2022-07-09T08:47:39;2.70;;;1.67;;
705;SDS011;21234;48.690;9.016;2022-07-09T08:50:07;2.80;;;1.60;;
705;SDS011;21234;48.690;9.016;2022-07-09T08:52:35;1.70;;;1.60;;
705;SDS011;21234;48.690;9.016;2022-07-09T08:55:02;1.70;;;1.60;;
705;SDS011;21234;48.690;9.016;2022-07-09T08:57:29;1.70;;;1.60;;
705;SDS011;21234;48.690;9.016;2022-07-09T08:59:56;2.30;;;2.10;;
705;SDS011;21234;48.690;9.016;2022-07-09T09:02:23;1.77;;;1.67;;
705;SDS011;21234;48.690;9.016;2022-07-09T09:04:51;1.30;;;1.20;;
705;SDS011;21234;48.690;9.016;2022-07-09T09:07:21;1.87;;;1.60;;
705;SDS011;21234;48.690;9.016;2022-07-09T09:09:47;1.80;;;1.67;;
705;SDS011;21234;48.690;9.016;2022-07-09T09:12:14;1.83;;;1.40;;
705;SDS011;21234;48.690;9.016;2022-07-09T09:14:47;4.30;;;1.43;;
705;SDS011;21234;48.690;9.016;2022-07-09T09:17:15;3.33;;;1.63;;
705;SDS011;21234;48.690;9.016;2022-07-09T09:19:41;1.63;;;1.30;;
705;SDS011;21234;48.690;9.016;2022-07-09T09:22:10;2.30;;;1.10;;
705;SDS011;21234;48.690;9.016;2022-07-09T09:24:41;3.53;;;1.40;;
705;SDS011;21234;48.690;9.016;2022-07-09T09:27:08;1.90;;;1.43;;
705;SDS011;21234;48.690;9.016;2022-07-09T09:29:35;1.40;;;1.30;;
705;SDS011;21234;48.690;9.016;2022-07-09T09:32:08;2.43;;;1.60;;
705;SDS011;21234;48.690;9.016;2022-07-09T09:34:37;2.77;;;1.20;;
705;SDS011;21234;48.690;9.016;2022-07-09T09:37:06;1.80;;;1.70;;
705;SDS011;21234;48.690;9.016;2022-07-09T09:39:35;1.77;;;1.60;;
705;SDS011;21234;48.690;9.016;2022-07-09T09:42:02;1.63;;;1.40;;
705;SDS011;21234;48.690;9.016;2022-07-09T09:44:31;3.43;;;1.90;;
705;SDS011;21234;48.690;9.016;2022-07-09T09:47:03;1.50;;;1.40;;
705;SDS011;21234;48.690;9.016;2022-07-09T09:49:30;1.67;;;1.10;;
705;SDS011;21234;48.690;9.016;2022-07-09T09:52:00;1.60;;;1.33;;
705;SDS011;21234;48.690;9.016;2022-07-09T09:54:31;2.00;;;1.63;;
705;SDS011;21234;48.690;9.016;2022-07-09T09:57:00;1.73;;;1.53;;
705;SDS011;21234;48.690;9.016;2022-07-09T09:59:31;1.40;;;1.30;;
705;SDS011;21234;48.690;9.016;2022-07-09T10:02:00;2.13;;;1.20;;
705;SDS011;21234;48.690;9.016;2022-07-09T10:04:28;2.70;;;1.40;;
705;SDS011;21234;48.690;9.016;2022-07-09T10:06:55;1.87;;;1.10;;
705;SDS011;21234;48.690;9.016;2022-07-09T10:09:22;3.80;;;1.67;;
705;SDS011;21234;48.690;9.016;2022-07-09T10:11:48;5.97;;;4.07;;
705;SDS011;21234;48.690;9.016;2022-07-09T10:14:18;1.47;;;1.37;;
705;SDS011;21234;48.690;9.016;2022-07-09T10:16:56;1.63;;;1.33;;
705;SDS011;21234;48.690;9.016;2022-07-09T10:19:23;1.30;;;1.20;;
705;SDS011;21234;48.690;9.016;2022-07-09T10:21:51;1.10;;;1.00;;
705;SDS011;21234;48.690;9.016;2022-07-09T10:24:23;1.40;;;1.30;;
705;SDS011;21234;48.690;9.016;2022-07-09T10:26:50;1.30;;;1.20;;
705;SDS011;21234;48.690;9.016;2022-07-09T10:29:22;2.10;;;1.13;;
705;SDS011;21234;48.690;9.016;2022-07-09T10:31:51;1.30;;;1.03;;
705;SDS011;21234;48.690;9.016;2022-07-09T10:34:37;1.50;;;1.40;;
705;SDS011;21234;48.690;9.016;2022-07-09T10:37:11;1.20;;;1.10;;
705;SDS011;21234;48.690;9.016;2022-07-09T10:39:38;2.93;;;1.60;;
705;SDS011;21234;48.690;9.016;2022-07-09T10:42:05;1.87;;;1.40;;
705;SDS011;21234;48.690;9.016;2022-07-09T10:44:37;1.23;;;1.10;;
705;SDS011;21234;48.690;9.016;2022-07-09T10:47:06;1.47;;;1.37;;
705;SDS011;21234;48.690;9.016;2022-07-09T10:49:33;2.50;;;1.57;;
705;SDS011;21234;48.690;9.016;2022-07-09T10:52:02;1.40;;;1.30;;
705;SDS011;21234;48.690;9.016;2022-07-09T10:54:29;2.17;;;1.93;;
705;SDS011;21234;48.690;9.016;2022-07-09T10:56:56;1.90;;;1.27;;
705;SDS011;21234;48.690;9.016;2022-07-09T10:59:24;3.97;;;1.80;;
705;SDS011;21234;48.690;9.016;2022-07-09T11:01:52;2.10;;;1.57;;
705;SDS011;21234;48.690;9.016;2022-07-09T11:04:27;1.77;;;1.57;;
705;SDS011;21234;48.690;9.016;2022-07-09T11:06:55;2.00;;;1.17;;
705;SDS011;21234;48.690;9.016;2022-07-09T11:09:22;2.50;;;1.53;;
705;SDS011;21234;48.690;9.016;2022-07-09T11:11:53;2.60;;;1.87;;
705;SDS011;21234;48.690;9.016;2022-07-09T11:14:20;1.90;;;1.70;;
705;SDS011;21234;48.690;9.016;2022-07-09T11:16:54;3.77;;;1.87;;
705;SDS011;21234;48.690;9.016;2022-07-09T11:19:23;2.63;;;1.73;;
705;SDS011;21234;48.690;9.016;2022-07-09T11:21:59;2.20;;;2.10;;
705;SDS011;21234;48.690;9.016;2022-07-09T11:24:27;1.60;;;1.50;;
705;SDS011;21234;48.690;9.016;2022-07-09T11:27:01;2.67;;;2.20;;
705;SDS011;21234;48.690;9.016;2022-07-09T11:29:34;1.57;;;1.47;;
705;SDS011;21234;48.690;9.016;2022-07-09T11:32:03;2.00;;;1.80;;
705;SDS011;21234;48.690;9.016;2022-07-09T11:34:30;1.83;;;1.73;;
705;SDS011;21234;48.690;9.016;2022-07-09T11:36:58;1.80;;;1.70;;
705;SDS011;21234;48.690;9.016;2022-07-09T11:39:25;1.27;;;1.17;;
705;SDS011;21234;48.690;9.016;2022-07-09T11:41:53;2.60;;;1.53;;
705;SDS011;21234;48.690;9.016;2022-07-09T11:44:21;2.70;;;1.80;;
705;SDS011;21234;48.690;9.016;2022-07-09T11:47:02;2.17;;;1.83;;
705;SDS011;21234;48.690;9.016;2022-07-09T11:49:35;1.70;;;1.57;;
705;SDS011;21234;48.690;9.016;2022-07-09T11:52:04;1.93;;;1.83;;
705;SDS011;21234;48.690;9.016;2022-07-09T11:54:31;3.23;;;2.10;;
705;SDS011;21234;48.690;9.016;2022-07-09T11:56:58;2.00;;;1.90;;
705;SDS011;21234;48.690;9.016;2022-07-09T11:59:25;1.90;;;1.80;;
705;SDS011;21234;48.690;9.016;2022-07-09T12:01:56;2.07;;;1.97;;
705;SDS011;21234;48.690;9.016;2022-07-09T12:04:27;2.67;;;1.70;;
705;SDS011;21234;48.690;9.016;2022-07-09T12:06:55;2.47;;;1.70;;
705;SDS011;21234;48.690;9.016;2022-07-09T12:09:29;1.70;;;1.60;;
705;SDS011;21234;48.690;9.016;2022-07-09T12:11:57;2.10;;;1.90;;
705;SDS011;21234;48.690;9.016;2022-07-09T12:14:24;2.17;;;1.97;;
705;SDS011;21234;48.690;9.016;2022-07-09T12:16:51;1.93;;;1.63;;
705;SDS011;21234;48.690;9.016;2022-07-09T12:19:18;1.83;;;1.73;;
705;SDS011;21234;48.690;9.016;2022-07-09T12:21:46;1.63;;;1.43;;
705;SDS011;21234;48.690;9.016;2022-07-09T12:24:13;1.93;;;1.77;;
705;SDS011;21234;48.690;9.016;2022-07-09T12:26:40;4.23;;;2.00;;
705;SDS011;21234;48.690;9.016;2022-07-09T12:29:06;2.37;;;2.17;;
705;SDS011;21234;48.690;9.016;2022-07-09T12:31:33;2.63;;;2.00;;
705;SDS011;21234;48.690;9.016;2022-07-09T12:34:02;1.87;;;1.77;;
705;SDS011;21234;48.690;9.016;2022-07-09T12:36:29;2.07;;;1.87;;
705;SDS011;21234;48.690;9.016;2022-07-09T12:38:57;3.53;;;2.40;;
705;SDS011;21234;48.690;9.016;2022-07-09T12:41:24;1.87;;;1.77;;
705;SDS011;21234;48.690;9.016;2022-07-09T12:43:51;2.87;;;1.80;;
705;SDS011;21234;48.690;9.016;2022-07-09T12:46:18;1.40;;;1.30;;
705;SDS011;21234;48.690;9.016;2022-07-09T12:48:45;1.57;;;1.47;;
705;SDS011;21234;48.690;9.016;2022-07-09T12:51:11;1.27;;;1.17;;
705;SDS011;21234;48.690;9.016;2022-07-09T12:53:38;1.43;;;1.33;;
705;SDS011;21234;48.690;9.016;2022-07-09T12:56:06;1.70;;;1.60;;
705;SDS011;21234;48.690;9.016;2022-07-09T12:58:33;5.50;;;1.90;;
705;SDS011;21234;48.690;9.016;2022-07-09T13:01:00;1.50;;;1.40;;
705;SDS011;21234;48.690;9.016;2022-07-09T13:03:27;2.63;;;2.07;;
705;SDS011;21234;48.690;9.016;2022-07-09T13:05:54;1.53;;;1.43;;
705;SDS011;21234;48.690;9.016;2022-07-09T13:08:20;2.60;;;1.50;;
705;SDS011;21234;48.690;9.016;2022-07-09T13:10:47;1.90;;;1.70;;
705;SDS011;21234;48.690;9.016;2022-07-09T13:13:15;1.47;;;1.30;;
705;SDS011;21234;48.690;9.016;2022-07-09T13:15:42;1.77;;;1.60;;
705;SDS011;21234;48.690;9.016;2022-07-09T13:18:09;2.23;;;2.03;;
705;SDS011;21234;48.690;9.016;2022-07-09T13:20:36;1.87;;;1.40;;
705;SDS011;21234;48.690;9.016;2022-07-09T13:23:03;2.50;;;2.30;;
705;SDS011;21234;48.690;9.016;2022-07-09T13:25:30;1.30;;;1.20;;
705;SDS011;21234;48.690;9.016;2022-07-09T13:27:57;1.77;;;1.67;;
705;SDS011;21234;48.690;9.016;2022-07-09T13:30:25;3.00;;;2.00;;
705;SDS011;21234;48.690;9.016;2022-07-09T13:32:52;4.20;;;1.90;;
705;SDS011;21234;48.690;9.016;2022-07-09T13:35:18;2.00;;;1.90;;
705;SDS011;21234;48.690;9.016;2022-07-09T13:37:45;2.20;;;1.60;;
705;SDS011;21234;48.690;9.016;2022-07-09T13:40:12;1.40;;;1.30;;
705;SDS011;21234;48.690;9.016;2022-07-09T13:42:39;1.87;;;1.50;;
705;SDS011;21234;48.690;9.016;2022-07-09T13:45:06;1.70;;;1.60;;
705;SDS011;21234;48.690;9.016;2022-07-09T13:47:34;1.83;;;1.63;;
705;SDS011;21234;48.690;9.016;2022-07-09T13:50:01;2.57;;;1.60;;
705;SDS011;21234;48.690;9.016;2022-07-09T13:52:28;1.60;;;1.50;;
705;SDS011;21234;48.690;9.016;2022-07-09T13:54:55;4.40;;;1.67;;
705;SDS011;21234;48.690;9.016;2022-07-09T13:57:22;1.63;;;1.53;;
705;SDS011;21234;48.690;9.016;2022-07-09T13:59:49;2.47;;;2.27;;
705;SDS011;21234;48.690;9.016;2022-07-09T14:02:16;4.30;;;2.43;;
705;SDS011;21234;48.690;9.016;2022-07-09T14:04:44;1.70;;;1.60;;
705;SDS011;21234;48.690;9.016;2022-07-09T14:07:12;2.53;;;1.90;;
705;SDS011;21234;48.690;9.016;2022-07-09T14:09:38;2.03;;;1.50;;
705;SDS011;21234;48.690;9.016;2022-07-09T14:12:06;2.10;;;2.00;;
705;SDS011;21234;48.690;9.016;2022-07-09T14:14:32;1.47;;;1.37;;
705;SDS011;21234;48.690;9.016;2022-07-09T14:16:59;2.40;;;2.20;;
705;SDS011;21234;48.690;9.016;2022-07-09T14:19:27;2.37;;;2.17;;
705;SDS011;21234;48.690;9.016;2022-07-09T14:21:55;1.87;;;1.70;;
705;SDS011;21234;48.690;9.016;2022-07-09T14:24:22;1.97;;;1.87;;
705;SDS011;21234;48.690;9.016;2022-07-09T14:26:48;2.07;;;1.87;;
705;SDS011;21234;48.690;9.016;2022-07-09T14:29:16;2.23;;;1.87;;
705;SDS011;21234;48.690;9.016;2022-07-09T14:31:42;2.20;;;2.00;;
705;SDS011;21234;48.690;9.016;2022-07-09T14:34:09;2.27;;;2.17;;
705;SDS011;21234;48.690;9.016;2022-07-09T14:36:36;2.00;;;1.90;;
705;SDS011;21234;48.690;9.016;2022-07-09T14:39:04;2.43;;;2.00;;
705;SDS011;21234;48.690;9.016;2022-07-09T14:41:31;2.30;;;2.10;;
705;SDS011;21234;48.690;9.016;2022-07-09T14:43:59;3.10;;;2.70;;
705;SDS011;21234;48.690;9.016;2022-07-09T14:46:26;2.40;;;2.20;;
705;SDS011;21234;48.690;9.016;2022-07-09T14:48:52;2.40;;;2.20;;
705;SDS011;21234;48.690;9.016;2022-07-09T14:51:19;2.50;;;2.27;;
705;SDS011;21234;48.690;9.016;2022-07-09T14:53:46;2.17;;;2.07;;
705;SDS011;21234;48.690;9.016;2022-07-09T14:56:14;2.73;;;2.53;;
705;SDS011;21234;48.690;9.016;2022-07-09T14:58:41;2.77;;;2.57;;
705;SDS011;21234;48.690;9.016;2022-07-09T15:01:08;2.70;;;2.50;;
705;SDS011;21234;48.690;9.016;2022-07-09T15:03:35;3.03;;;2.83;;
705;SDS011;21234;48.690;9.016;2022-07-09T15:06:02;3.23;;;3.03;;
705;SDS011;21234;48.690;9.016;2022-07-09T15:08:29;5.67;;;2.73;;
705;SDS011;21234;48.690;9.016;2022-07-09T15:10:56;2.60;;;2.40;;
705;SDS011;21234;48.690;9.016;2022-07-09T15:13:24;2.83;;;2.63;;
705;SDS011;21234;48.690;9.016;2022-07-09T15:15:51;2.80;;;2.60;;
705;SDS011;21234;48.690;9.016;2022-07-09T15:18:18;2.50;;;2.40;;